Time;durP1;ratioP1;P1;durP2;ratioP2;P2;SDS_P1;SDS_P2;PMS_P1;PMS_P2;Temp;Humidity;BMP_temperature;BMP_pressure;BME280_temperature;BME280_humidity;BME280_pressure;Samples;Min_cycle;Max_cycle;Signal;HPM_P1;HPM_P2
2021/11/20 00:02:02;;;;;;;7.50;3.60;;;;;;;-128.00;-1.00;-1.00;126584;1284;1076429;-82
2021/11/20 00:05:08;;;;;;;7.10;4.80;;;;;;;-128.00;-1.00;-1.00;126622;1281;1076679;-82
2021/11/20 00:08:11;;;;;;;8.80;4.50;;;;;;;-128.00;-1.00;-1.00;126602;1285;1074856;-81
2021/11/20 00:11:17;;;;;;;8.20;3.90;;;;;;;-128.00;-1.00;-1.00;126690;1285;1004471;-82
2021/11/20 00:14:22;;;;;;;6.00;3.90;;;;;;;-128.00;-1.00;-1.00;126602;1281;1073606;-84
2021/11/20 00:17:25;;;;;;;8.30;5.30;;;;;;;-128.00;-1.00;-1.00;126688;1281;1075078;-82
2021/11/20 00:20:31;;;;;;;6.90;3.80;;;;;;;-128.00;-1.00;-1.00;126741;1285;1004767;-80
2021/11/20 00:23:39;;;;;;;7.10;4.00;;;;;;;-128.00;-1.00;-1.00;126617;1285;1074943;-82
2021/11/20 00:26:42;;;;;;;5.30;3.10;;;;;;;-128.00;-1.00;-1.00;126722;1285;1074031;-83
2021/11/20 00:29:46;;;;;;;7.40;3.60;;;;;;;-128.00;-1.00;-1.00;126581;1281;1004038;-81
2021/11/20 00:32:51;;;;;;;5.80;3.40;;;;;;;-128.00;-1.00;-1.00;126641;1282;1004099;-81
2021/11/20 00:35:58;;;;;;;7.40;4.20;;;;;;;-128.00;-1.00;-1.00;126664;1285;1076945;-80
2021/11/20 00:39:00;;;;;;;8.40;5.00;;;;;;;-128.00;-1.00;-1.00;126590;1285;1076685;-80
2021/11/20 00:42:05;;;;;;;8.00;3.30;;;;;;;-128.00;-1.00;-1.00;126402;1281;1005379;-81
2021/11/20 00:45:09;;;;;;;8.70;3.50;;;;;;;-128.00;-1.00;-1.00;126371;1281;1074929;-82
2021/11/20 00:48:14;;;;;;;7.80;3.30;;;;;;;-128.00;-1.00;-1.00;126372;1285;1076271;-80
2021/11/20 00:51:22;;;;;;;6.60;2.90;;;;;;;-128.00;-1.00;-1.00;126570;1285;1073714;-82
2021/11/20 00:54:25;;;;;;;10.20;4.40;;;;;;;-128.00;-1.00;-1.00;126511;1281;1076016;-80
2021/11/20 00:57:28;;;;;;;4.90;3.10;;;;;;;-128.00;-1.00;-1.00;126613;1281;1004896;-81
2021/11/20 01:00:36;;;;;;;8.50;4.40;;;;;;;-128.00;-1.00;-1.00;126608;1281;1003537;-81
2021/11/20 01:03:38;;;;;;;8.20;3.70;;;;;;;-128.00;-1.00;-1.00;126388;1284;1076562;-81
2021/11/20 01:06:45;;;;;;;7.20;3.20;;;;;;;-128.00;-1.00;-1.00;126578;1285;1075954;-82
2021/11/20 01:09:48;;;;;;;3.40;2.40;;;;;;;-128.00;-1.00;-1.00;126501;1285;1073174;-82
2021/11/20 01:12:51;;;;;;;5.00;3.10;;;;;;;-128.00;-1.00;-1.00;126762;1285;1004455;-82
2021/11/20 01:16:02;;;;;;;6.30;3.20;;;;;;;-128.00;-1.00;-1.00;126647;1285;1004123;-81
2021/11/20 01:19:06;;;;;;;4.80;2.70;;;;;;;-128.00;-1.00;-1.00;126388;1285;1074218;-82
2021/11/20 01:22:31;;;;;;;4.50;2.60;;;;;;;-128.00;-1.00;-1.00;126470;1285;1077108;-80
2021/11/20 01:25:53;;;;;;;6.20;2.40;;;;;;;-128.00;-1.00;-1.00;126646;1283;1074688;-81
2021/11/20 01:29:01;;;;;;;5.20;2.70;;;;;;;-128.00;-1.00;-1.00;126602;1285;1076477;-78
2021/11/20 01:32:14;;;;;;;5.90;2.90;;;;;;;-128.00;-1.00;-1.00;126511;1285;1076087;-80
2021/11/20 01:35:18;;;;;;;4.80;2.50;;;;;;;-128.00;-1.00;-1.00;126597;1285;1004527;-85
2021/11/20 01:38:32;;;;;;;4.30;2.60;;;;;;;-128.00;-1.00;-1.00;126765;1285;1077560;-82
2021/11/20 01:41:48;;;;;;;4.50;2.70;;;;;;;-128.00;-1.00;-1.00;126568;1285;1077545;-79
2021/11/20 01:45:22;;;;;;;5.30;2.60;;;;;;;-128.00;-1.00;-1.00;126611;1285;1077109;-82
2021/11/20 01:48:50;;;;;;;4.50;2.20;;;;;;;-128.00;-1.00;-1.00;126596;1285;1076678;-82
2021/11/20 01:51:59;;;;;;;4.80;2.30;;;;;;;-128.00;-1.00;-1.00;126367;1285;1077174;-83
2021/11/20 01:55:12;;;;;;;5.40;2.30;;;;;;;-128.00;-1.00;-1.00;126494;1285;1076439;-83
2021/11/20 01:58:38;;;;;;;5.80;2.50;;;;;;;-128.00;-1.00;-1.00;126746;1283;1076733;-80
2021/11/20 02:01:54;;;;;;;5.20;2.20;;;;;;;-128.00;-1.00;-1.00;126663;1284;1076767;-81
2021/11/20 02:05:23;;;;;;;4.10;2.10;;;;;;;-128.00;-1.00;-1.00;126767;1283;1076338;-80
2021/11/20 02:08:42;;;;;;;4.20;2.30;;;;;;;-128.00;-1.00;-1.00;126767;1285;1074244;-82
2021/11/20 02:11:48;;;;;;;4.80;2.20;;;;;;;-128.00;-1.00;-1.00;126490;1285;1076280;-81
2021/11/20 02:14:52;;;;;;;5.20;2.70;;;;;;;-128.00;-1.00;-1.00;126318;1287;1075962;-81
2021/11/20 02:17:57;;;;;;;5.30;2.20;;;;;;;-128.00;-1.00;-1.00;126593;1285;1005056;-81
2021/11/20 02:21:16;;;;;;;5.20;2.40;;;;;;;-128.00;-1.00;-1.00;126798;1284;1076807;-80
2021/11/20 02:24:20;;;;;;;3.50;1.90;;;;;;;-128.00;-1.00;-1.00;126673;1281;1076868;-81
2021/11/20 02:28:00;;;;;;;6.80;2.20;;;;;;;-128.00;-1.00;-1.00;126624;1285;1075760;-83
2021/11/20 02:31:04;;;;;;;4.80;1.90;;;;;;;-128.00;-1.00;-1.00;126679;1281;1074998;-81
2021/11/20 02:34:07;;;;;;;3.50;1.90;;;;;;;-128.00;-1.00;-1.00;126345;1285;1073965;-82
2021/11/20 02:37:11;;;;;;;5.00;2.30;;;;;;;-128.00;-1.00;-1.00;126413;1285;1004277;-81
2021/11/20 02:40:17;;;;;;;4.70;2.10;;;;;;;-128.00;-1.00;-1.00;126548;1285;1074327;-82
2021/11/20 02:43:22;;;;;;;6.00;1.90;;;;;;;-128.00;-1.00;-1.00;126527;1285;1005044;-81
2021/11/20 02:46:44;;;;;;;5.00;2.00;;;;;;;-128.00;-1.00;-1.00;126599;1282;1076348;-82
2021/11/20 02:49:46;;;;;;;4.20;2.20;;;;;;;-128.00;-1.00;-1.00;126407;1285;1074653;-82
2021/11/20 02:52:53;;;;;;;7.80;2.40;;;;;;;-128.00;-1.00;-1.00;126648;1282;1075653;-81
2021/11/20 02:55:55;;;;;;;4.50;2.20;;;;;;;-128.00;-1.00;-1.00;126692;1285;1004858;-83
2021/11/20 02:59:01;;;;;;;3.40;1.80;;;;;;;-128.00;-1.00;-1.00;126770;1284;1076433;-82
2021/11/20 03:02:25;;;;;;;3.80;1.90;;;;;;;-128.00;-1.00;-1.00;126350;1288;1076916;-81
2021/11/20 03:05:28;;;;;;;4.30;1.80;;;;;;;-128.00;-1.00;-1.00;126334;1288;1004549;-83
2021/11/20 03:08:31;;;;;;;3.60;1.70;;;;;;;-128.00;-1.00;-1.00;126353;1288;1004304;-83
2021/11/20 03:11:39;;;;;;;4.90;1.90;;;;;;;-128.00;-1.00;-1.00;126291;1288;1077445;-83
2021/11/20 03:14:43;;;;;;;6.40;1.90;;;;;;;-128.00;-1.00;-1.00;126338;1284;1005505;-85
2021/11/20 03:17:46;;;;;;;4.30;1.90;;;;;;;-128.00;-1.00;-1.00;126330;1288;1004578;-83
2021/11/20 03:20:51;;;;;;;3.40;1.90;;;;;;;-128.00;-1.00;-1.00;126132;1288;1077216;-82
2021/11/20 03:23:57;;;;;;;4.90;2.00;;;;;;;-128.00;-1.00;-1.00;126328;1288;1003604;-83
2021/11/20 03:27:00;;;;;;;4.40;1.70;;;;;;;-128.00;-1.00;-1.00;126347;1288;1077258;-82
2021/11/20 03:30:08;;;;;;;4.30;1.60;;;;;;;-128.00;-1.00;-1.00;126107;1288;1076331;-81
2021/11/20 03:33:14;;;;;;;4.00;1.60;;;;;;;-128.00;-1.00;-1.00;126394;1281;1073766;-82
2021/11/20 03:36:19;;;;;;;4.00;1.80;;;;;;;-128.00;-1.00;-1.00;126583;1285;1076562;-81
2021/11/20 03:39:22;;;;;;;3.50;1.60;;;;;;;-128.00;-1.00;-1.00;126468;1285;1003963;-81
2021/11/20 03:42:26;;;;;;;5.70;1.80;;;;;;;-128.00;-1.00;-1.00;126327;1285;1004455;-81
2021/11/20 03:45:32;;;;;;;3.90;1.60;;;;;;;-128.00;-1.00;-1.00;126327;1285;1004932;-83
2021/11/20 03:48:35;;;;;;;3.90;1.90;;;;;;;-128.00;-1.00;-1.00;126332;1285;1075115;-82
2021/11/20 03:51:38;;;;;;;5.10;1.90;;;;;;;-128.00;-1.00;-1.00;126415;1285;1003948;-83
2021/11/20 03:54:43;;;;;;;3.60;1.60;;;;;;;-128.00;-1.00;-1.00;126510;1285;1004017;-84
2021/11/20 03:57:47;;;;;;;3.60;1.40;;;;;;;-128.00;-1.00;-1.00;126748;1285;1074754;-84
2021/11/20 04:00:53;;;;;;;4.70;1.70;;;;;;;-128.00;-1.00;-1.00;126344;1287;1004748;-84
2021/11/20 04:03:57;;;;;;;4.70;1.70;;;;;;;-128.00;-1.00;-1.00;126459;1285;1076087;-81
2021/11/20 04:07:02;;;;;;;4.90;2.10;;;;;;;-128.00;-1.00;-1.00;126660;1285;1004843;-79
2021/11/20 04:10:08;;;;;;;4.20;1.80;;;;;;;-128.00;-1.00;-1.00;126571;1285;1077100;-81
2021/11/20 04:13:11;;;;;;;4.10;2.10;;;;;;;-128.00;-1.00;-1.00;126459;1285;1074041;-80
2021/11/20 04:16:17;;;;;;;4.80;2.00;;;;;;;-128.00;-1.00;-1.00;126775;1285;1004940;-80
2021/11/20 04:19:20;;;;;;;5.00;2.10;;;;;;;-128.00;-1.00;-1.00;126529;1285;1077019;-78
2021/11/20 04:22:23;;;;;;;4.80;2.20;;;;;;;-128.00;-1.00;-1.00;126356;1285;1004395;-79
2021/11/20 04:25:29;;;;;;;5.60;2.10;;;;;;;-128.00;-1.00;-1.00;126535;1285;1004451;-79
2021/11/20 04:28:34;;;;;;;4.70;1.90;;;;;;;-128.00;-1.00;-1.00;126700;1285;1076742;-78
2021/11/20 04:31:44;;;;;;;5.10;2.00;;;;;;;-128.00;-1.00;-1.00;126585;1285;1076275;-78
2021/11/20 04:34:47;;;;;;;4.90;2.20;;;;;;;-128.00;-1.00;-1.00;126487;1285;1073329;-80
2021/11/20 04:37:51;;;;;;;6.40;2.20;;;;;;;-128.00;-1.00;-1.00;126464;1285;1006194;-82
2021/11/20 04:40:57;;;;;;;4.00;2.20;;;;;;;-128.00;-1.00;-1.00;126396;1285;1076640;-85
2021/11/20 04:44:00;;;;;;;6.90;2.30;;;;;;;-128.00;-1.00;-1.00;126513;1281;1004612;-83
2021/11/20 04:47:03;;;;;;;4.70;2.20;;;;;;;-128.00;-1.00;-1.00;126602;1285;1006240;-82
2021/11/20 04:50:09;;;;;;;5.40;2.00;;;;;;;-128.00;-1.00;-1.00;126624;1281;1003929;-82
2021/11/20 04:53:12;;;;;;;4.60;2.10;;;;;;;-128.00;-1.00;-1.00;126638;1285;1076747;-84
2021/11/20 04:56:17;;;;;;;6.20;2.20;;;;;;;-128.00;-1.00;-1.00;126643;1285;1003730;-80
2021/11/20 04:59:20;;;;;;;5.50;2.40;;;;;;;-128.00;-1.00;-1.00;126641;1284;1074645;-82
2021/11/20 05:02:23;;;;;;;6.40;2.50;;;;;;;-128.00;-1.00;-1.00;126802;1285;1004214;-82
2021/11/20 05:05:26;;;;;;;5.80;2.10;;;;;;;-128.00;-1.00;-1.00;126692;1285;1005086;-82
2021/11/20 05:08:29;;;;;;;6.00;2.10;;;;;;;-128.00;-1.00;-1.00;126778;1285;1004830;-81
2021/11/20 05:11:38;;;;;;;5.00;2.50;;;;;;;-128.00;-1.00;-1.00;126442;1285;1077233;-82
2021/11/20 05:14:42;;;;;;;6.90;2.50;;;;;;;-128.00;-1.00;-1.00;126787;1285;1076954;-81
2021/11/20 05:17:45;;;;;;;4.60;2.30;;;;;;;-128.00;-1.00;-1.00;126471;1285;1003670;-82
2021/11/20 05:20:59;;;;;;;7.20;2.90;;;;;;;-128.00;-1.00;-1.00;126456;1285;1076442;-84
2021/11/20 05:24:04;;;;;;;7.40;3.10;;;;;;;-128.00;-1.00;-1.00;126819;1285;1076706;-79
2021/11/20 05:27:08;;;;;;;9.60;4.40;;;;;;;-128.00;-1.00;-1.00;126778;1285;1004668;-80
2021/11/20 05:30:16;;;;;;;8.50;3.40;;;;;;;-128.00;-1.00;-1.00;126399;1285;1076150;-82
2021/11/20 05:33:31;;;;;;;8.80;3.90;;;;;;;-128.00;-1.00;-1.00;126339;1285;1077067;-81
2021/11/20 05:36:36;;;;;;;7.30;3.40;;;;;;;-128.00;-1.00;-1.00;126395;1285;1074643;-81
2021/11/20 05:39:42;;;;;;;10.50;4.00;;;;;;;-128.00;-1.00;-1.00;126664;1285;1074491;-81
2021/11/20 05:42:48;;;;;;;9.00;4.50;;;;;;;-128.00;-1.00;-1.00;126633;1285;1004852;-79
2021/11/20 05:45:54;;;;;;;11.10;4.60;;;;;;;-128.00;-1.00;-1.00;126593;1285;1076015;-80
2021/11/20 05:48:58;;;;;;;7.80;3.50;;;;;;;-128.00;-1.00;-1.00;126346;1284;1074088;-80
2021/11/20 05:52:02;;;;;;;6.60;2.70;;;;;;;-128.00;-1.00;-1.00;126396;1284;1004294;-80
2021/11/20 05:55:06;;;;;;;7.60;3.60;;;;;;;-128.00;-1.00;-1.00;126759;1285;1003513;-80
2021/11/20 05:58:12;;;;;;;5.40;2.80;;;;;;;-128.00;-1.00;-1.00;126660;1285;1076662;-80
2021/11/20 06:01:16;;;;;;;8.30;3.50;;;;;;;-128.00;-1.00;-1.00;126421;1285;1004864;-80
2021/11/20 06:04:22;;;;;;;5.80;2.90;;;;;;;-128.00;-1.00;-1.00;126776;1285;1076220;-81
2021/11/20 06:07:24;;;;;;;4.70;2.90;;;;;;;-128.00;-1.00;-1.00;126809;1285;1004501;-81
2021/11/20 06:10:28;;;;;;;7.50;3.80;;;;;;;-128.00;-1.00;-1.00;126444;1285;1005610;-79
2021/11/20 06:13:32;;;;;;;6.10;2.90;;;;;;;-128.00;-1.00;-1.00;126456;1285;1073409;-80
2021/11/20 06:16:44;;;;;;;7.30;2.90;;;;;;;-128.00;-1.00;-1.00;126759;1285;1075712;-81
2021/11/20 06:19:47;;;;;;;5.30;2.80;;;;;;;-128.00;-1.00;-1.00;126700;1285;1004795;-80
2021/11/20 06:22:50;;;;;;;24.20;12.50;;;;;;;-128.00;-1.00;-1.00;126752;1285;1004400;-80
2021/11/20 06:25:53;;;;;;;9.10;3.90;;;;;;;-128.00;-1.00;-1.00;126706;1285;1004612;-83
2021/11/20 06:28:56;;;;;;;6.00;3.30;;;;;;;-128.00;-1.00;-1.00;126458;1284;1005372;-81
2021/11/20 06:31:59;;;;;;;10.40;4.50;;;;;;;-128.00;-1.00;-1.00;126587;1285;1004207;-82
2021/11/20 06:35:22;;;;;;;8.10;4.40;;;;;;;-128.00;-1.00;-1.00;126604;1284;1076956;-82
2021/11/20 06:38:40;;;;;;;15.00;6.50;;;;;;;-128.00;-1.00;-1.00;126605;1285;1076080;-81
2021/11/20 06:41:43;;;;;;;10.60;5.40;;;;;;;-128.00;-1.00;-1.00;126587;1285;1073939;-82
2021/11/20 06:44:47;;;;;;;11.10;4.70;;;;;;;-128.00;-1.00;-1.00;126391;1284;1003799;-82
2021/11/20 06:47:51;;;;;;;8.50;3.40;;;;;;;-128.00;-1.00;-1.00;126710;1285;1003586;-80
2021/11/20 06:50:54;;;;;;;10.70;4.80;;;;;;;-128.00;-1.00;-1.00;126353;1285;1074270;-82
2021/11/20 06:54:12;;;;;;;26.60;15.60;;;;;;;-128.00;-1.00;-1.00;126783;1285;1076291;-81
2021/11/20 06:57:49;;;;;;;12.40;6.20;;;;;;;-128.00;-1.00;-1.00;126671;1285;1076255;-80
2021/11/20 07:01:13;;;;;;;16.80;8.60;;;;;;;-128.00;-1.00;-1.00;126742;1285;1076793;-84
2021/11/20 07:04:30;;;;;;;6.60;2.90;;;;;;;-128.00;-1.00;-1.00;126785;1285;1076723;-84
2021/11/20 07:07:34;;;;;;;6.60;3.30;;;;;;;-128.00;-1.00;-1.00;126558;1285;1074640;-84
2021/11/20 07:10:38;;;;;;;6.90;3.40;;;;;;;-128.00;-1.00;-1.00;126767;1284;1005504;-82
2021/11/20 07:13:41;;;;;;;9.20;4.10;;;;;;;-128.00;-1.00;-1.00;126789;1285;1003613;-77
2021/11/20 07:16:44;;;;;;;7.90;4.50;;;;;;;-128.00;-1.00;-1.00;126316;1287;1004708;-84
2021/11/20 07:19:47;;;;;;;7.90;2.60;;;;;;;-128.00;-1.00;-1.00;126708;1285;1004293;-83
2021/11/20 07:23:13;;;;;;;5.90;3.10;;;;;;;-128.00;-1.00;-1.00;126835;1285;1073716;-83
2021/11/20 07:26:18;;;;;;;7.80;3.10;;;;;;;-128.00;-1.00;-1.00;126819;1285;1076625;-85
2021/11/20 07:29:21;;;;;;;8.00;3.30;;;;;;;-128.00;-1.00;-1.00;126367;1285;1004129;-84
2021/11/20 07:32:39;;;;;;;7.20;2.90;;;;;;;-128.00;-1.00;-1.00;126722;1285;1076981;-84
2021/11/20 07:35:44;;;;;;;6.60;2.70;;;;;;;-128.00;-1.00;-1.00;126619;1282;1004410;-84
2021/11/20 07:38:51;;;;;;;5.80;2.90;;;;;;;-128.00;-1.00;-1.00;126685;1281;1075803;-84
2021/11/20 07:41:54;;;;;;;7.10;2.90;;;;;;;-128.00;-1.00;-1.00;126492;1285;1073824;-82
2021/11/20 07:45:02;;;;;;;8.30;3.00;;;;;;;-128.00;-1.00;-1.00;126768;1282;1074889;-83
2021/11/20 07:48:07;;;;;;;6.80;3.30;;;;;;;-128.00;-1.00;-1.00;126438;1285;1076646;-83
2021/11/20 07:51:12;;;;;;;6.70;2.30;;;;;;;-128.00;-1.00;-1.00;126356;1285;1073841;-81
2021/11/20 07:54:20;;;;;;;9.20;2.80;;;;;;;-128.00;-1.00;-1.00;126714;1285;1076718;-80
2021/11/20 07:57:41;;;;;;;7.80;3.10;;;;;;;-128.00;-1.00;-1.00;126610;1282;1073990;-81
2021/11/20 08:00:45;;;;;;;7.20;3.30;;;;;;;-128.00;-1.00;-1.00;126577;1285;1004217;-83
2021/11/20 08:03:50;;;;;;;6.40;3.20;;;;;;;-128.00;-1.00;-1.00;126769;1283;1076898;-86
2021/11/20 08:07:19;;;;;;;7.30;3.30;;;;;;;-128.00;-1.00;-1.00;126476;1285;1075543;-87
2021/11/20 08:10:46;;;;;;;7.10;2.60;;;;;;;-128.00;-1.00;-1.00;126499;1285;1075780;-85
2021/11/20 08:13:50;;;;;;;7.10;2.80;;;;;;;-128.00;-1.00;-1.00;127084;1285;1074802;-85
2021/11/20 08:17:14;;;;;;;6.40;2.90;;;;;;;-128.00;-1.00;-1.00;126384;1287;1076420;-87
2021/11/20 08:20:41;;;;;;;8.30;3.00;;;;;;;-128.00;-1.00;-1.00;126306;1286;1075741;-87
2021/11/20 08:24:05;;;;;;;8.40;3.10;;;;;;;-128.00;-1.00;-1.00;126579;1282;1075794;-86
2021/11/20 08:27:14;;;;;;;7.40;2.80;;;;;;;-128.00;-1.00;-1.00;126282;1286;1074944;-86
2021/11/20 08:30:41;;;;;;;5.40;2.70;;;;;;;-128.00;-1.00;-1.00;126524;1285;1076406;-82
2021/11/20 08:33:52;;;;;;;6.70;3.00;;;;;;;-128.00;-1.00;-1.00;126321;1285;1077250;-82
2021/11/20 08:37:37;;;;;;;7.40;3.00;;;;;;;-128.00;-1.00;-1.00;126264;1285;1075909;-86
2021/11/20 08:41:01;;;;;;;6.20;3.30;;;;;;;-128.00;-1.00;-1.00;126362;1287;1073973;-83
2021/11/20 08:44:07;;;;;;;8.40;3.20;;;;;;;-128.00;-1.00;-1.00;126578;1285;1076145;-83
2021/11/20 08:47:19;;;;;;;5.50;2.60;;;;;;;-128.00;-1.00;-1.00;126578;1282;1076144;-83
2021/11/20 08:50:25;;;;;;;6.30;2.60;;;;;;;-128.00;-1.00;-1.00;126473;1285;1004556;-88
2021/11/20 08:53:28;;;;;;;7.00;2.80;;;;;;;-128.00;-1.00;-1.00;126562;1284;1073581;-87
2021/11/20 08:56:32;;;;;;;8.20;3.00;;;;;;;-128.00;-1.00;-1.00;126444;1284;1004287;-85
2021/11/20 08:59:55;;;;;;;9.40;3.10;;;;;;;-128.00;-1.00;-1.00;126616;1281;1076371;-88
2021/11/20 09:03:42;;;;;;;7.00;2.80;;;;;;;-128.00;-1.00;-1.00;126648;1285;1077071;-84
2021/11/20 09:06:53;;;;;;;6.30;3.20;;;;;;;-128.00;-1.00;-1.00;126657;1285;1075845;-84
2021/11/20 09:10:03;;;;;;;10.00;2.90;;;;;;;-128.00;-1.00;-1.00;126351;1287;1076935;-79
2021/11/20 09:13:11;;;;;;;7.10;3.40;;;;;;;-128.00;-1.00;-1.00;126381;1285;1076658;-77
2021/11/20 09:16:18;;;;;;;6.00;3.00;;;;;;;-128.00;-1.00;-1.00;126486;1285;1076227;-79
2021/11/20 09:19:21;;;;;;;5.70;2.80;;;;;;;-128.00;-1.00;-1.00;126245;1285;1077066;-79
2021/11/20 09:22:23;;;;;;;7.60;2.90;;;;;;;-128.00;-1.00;-1.00;126593;1285;1005308;-77
2021/11/20 09:25:44;;;;;;;7.40;3.70;;;;;;;-128.00;-1.00;-1.00;126445;1285;1075167;-79
2021/11/20 09:28:49;;;;;;;7.90;3.30;;;;;;;-128.00;-1.00;-1.00;126446;1284;1004508;-79
2021/11/20 09:31:54;;;;;;;5.70;2.60;;;;;;;-128.00;-1.00;-1.00;126534;1281;1074901;-77
2021/11/20 09:34:57;;;;;;;5.80;2.90;;;;;;;-128.00;-1.00;-1.00;126481;1285;1076593;-80
2021/11/20 09:38:25;;;;;;;6.70;3.00;;;;;;;-128.00;-1.00;-1.00;126542;1281;1074675;-81
2021/11/20 09:41:39;;;;;;;7.50;3.50;;;;;;;-128.00;-1.00;-1.00;126431;1285;1074067;-80
2021/11/20 09:44:46;;;;;;;7.00;3.30;;;;;;;-128.00;-1.00;-1.00;126432;1279;1073944;-82
2021/11/20 09:47:52;;;;;;;7.20;3.20;;;;;;;-128.00;-1.00;-1.00;126470;1285;1072854;-81
2021/11/20 09:51:06;;;;;;;6.40;3.00;;;;;;;-128.00;-1.00;-1.00;126300;1284;1074952;-79
2021/11/20 09:54:12;;;;;;;7.60;2.80;;;;;;;-128.00;-1.00;-1.00;126061;1287;1075687;-78
2021/11/20 09:57:27;;;;;;;7.10;3.10;;;;;;;-128.00;-1.00;-1.00;126725;1281;1074517;-80
2021/11/20 10:00:58;;;;;;;5.20;3.00;;;;;;;-128.00;-1.00;-1.00;126823;1285;1073837;-81
2021/11/20 10:04:15;;;;;;;10.40;3.60;;;;;;;-128.00;-1.00;-1.00;126812;1284;1072953;-79
2021/11/20 10:07:25;;;;;;;6.20;3.30;;;;;;;-128.00;-1.00;-1.00;126354;1287;1077440;-80
2021/11/20 10:10:34;;;;;;;7.70;3.30;;;;;;;-128.00;-1.00;-1.00;126627;1285;1077998;-78
2021/11/20 10:13:49;;;;;;;8.00;2.90;;;;;;;-128.00;-1.00;-1.00;126571;1281;1076560;-79
2021/11/20 10:16:54;;;;;;;4.90;2.60;;;;;;;-128.00;-1.00;-1.00;126648;1281;1073537;-79
2021/11/20 10:20:01;;;;;;;5.90;2.70;;;;;;;-128.00;-1.00;-1.00;126650;1285;1073957;-79
2021/11/20 10:23:25;;;;;;;5.70;2.40;;;;;;;-128.00;-1.00;-1.00;126907;1282;1073632;-79
2021/11/20 10:27:09;;;;;;;7.30;2.30;;;;;;;-128.00;-1.00;-1.00;126482;1285;1075712;-77
2021/11/20 10:30:30;;;;;;;4.10;2.80;;;;;;;-128.00;-1.00;-1.00;126578;1285;1074669;-81
2021/11/20 10:33:37;;;;;;;6.00;3.00;;;;;;;-128.00;-1.00;-1.00;126543;1285;1076956;-81
2021/11/20 10:36:47;;;;;;;6.70;3.70;;;;;;;-128.00;-1.00;-1.00;126538;1285;1076082;-81
2021/11/20 10:39:52;;;;;;;5.60;3.20;;;;;;;-128.00;-1.00;-1.00;126755;1285;1076760;-80
2021/11/20 10:43:00;;;;;;;8.80;4.40;;;;;;;-128.00;-1.00;-1.00;126750;1282;1076893;-80
2021/11/20 10:46:19;;;;;;;6.40;2.80;;;;;;;-128.00;-1.00;-1.00;126554;1285;1073779;-80
2021/11/20 10:49:39;;;;;;;7.00;4.00;;;;;;;-128.00;-1.00;-1.00;126509;1281;1074307;-79
2021/11/20 10:53:09;;;;;;;7.10;3.90;;;;;;;-128.00;-1.00;-1.00;126790;1281;1076600;-82
2021/11/20 10:56:26;;;;;;;7.80;4.80;;;;;;;-128.00;-1.00;-1.00;126693;1285;1076424;-84
2021/11/20 10:59:50;;;;;;;11.40;5.90;;;;;;;-128.00;-1.00;-1.00;126653;1285;1076006;-79
2021/11/20 11:03:24;;;;;;;7.90;4.80;;;;;;;-128.00;-1.00;-1.00;126680;1285;1076589;-80
2021/11/20 11:06:40;;;;;;;20.30;11.30;;;;;;;-128.00;-1.00;-1.00;126481;1281;1076721;-80
2021/11/20 11:09:47;;;;;;;9.10;5.70;;;;;;;-128.00;-1.00;-1.00;126566;1283;1074018;-80
2021/11/20 11:12:55;;;;;;;13.90;8.00;;;;;;;-128.00;-1.00;-1.00;126499;1282;1074308;-79
2021/11/20 11:16:09;;;;;;;13.30;7.30;;;;;;;-128.00;-1.00;-1.00;126469;1281;1076104;-80
2021/11/20 11:19:31;;;;;;;15.20;7.60;;;;;;;-128.00;-1.00;-1.00;126610;1284;1076317;-81
2021/11/20 11:22:37;;;;;;;8.60;5.20;;;;;;;-128.00;-1.00;-1.00;126577;1285;1075499;-81
2021/11/20 11:25:45;;;;;;;10.90;6.20;;;;;;;-128.00;-1.00;-1.00;126589;1282;1075151;-78
2021/11/20 11:28:54;;;;;;;6.60;4.00;;;;;;;-128.00;-1.00;-1.00;126423;1285;1077417;-78
2021/11/20 11:31:57;;;;;;;6.20;4.00;;;;;;;-128.00;-1.00;-1.00;126449;1283;1074160;-77
2021/11/20 11:35:06;;;;;;;6.10;4.40;;;;;;;-128.00;-1.00;-1.00;126419;1285;1005179;-78
2021/11/20 11:38:22;;;;;;;10.70;6.70;;;;;;;-128.00;-1.00;-1.00;126435;1282;1073495;-77
2021/11/20 11:41:32;;;;;;;11.30;4.50;;;;;;;-128.00;-1.00;-1.00;126486;1283;1074658;-77
2021/11/20 11:44:52;;;;;;;25.40;15.00;;;;;;;-128.00;-1.00;-1.00;126506;1281;1076587;-78
2021/11/20 11:47:57;;;;;;;7.60;4.70;;;;;;;-128.00;-1.00;-1.00;126777;1285;1072891;-78
2021/11/20 11:51:17;;;;;;;10.50;6.70;;;;;;;-128.00;-1.00;-1.00;126578;1281;1073723;-78
2021/11/20 11:54:35;;;;;;;17.30;9.50;;;;;;;-128.00;-1.00;-1.00;126537;1284;1076114;-80
2021/11/20 11:57:50;;;;;;;14.40;8.00;;;;;;;-128.00;-1.00;-1.00;126641;1281;1074406;-76
2021/11/20 12:01:03;;;;;;;8.40;4.40;;;;;;;-128.00;-1.00;-1.00;126458;1285;1073234;-76
2021/11/20 12:04:10;;;;;;;20.00;12.50;;;;;;;-128.00;-1.00;-1.00;126562;1285;1074441;-77
2021/11/20 12:07:35;;;;;;;14.40;8.30;;;;;;;-128.00;-1.00;-1.00;126530;1285;1076539;-77
2021/11/20 12:10:52;;;;;;;6.80;4.20;;;;;;;-128.00;-1.00;-1.00;126456;1285;1073240;-80
2021/11/20 12:14:06;;;;;;;5.30;3.20;;;;;;;-128.00;-1.00;-1.00;126421;1281;1074148;-77
2021/11/20 12:17:28;;;;;;;8.20;3.70;;;;;;;-128.00;-1.00;-1.00;126226;1287;1075305;-77
2021/11/20 12:20:38;;;;;;;6.40;4.00;;;;;;;-128.00;-1.00;-1.00;126433;1281;1076432;-78
2021/11/20 12:23:49;;;;;;;4.90;3.10;;;;;;;-128.00;-1.00;-1.00;126407;1285;1076716;-79
2021/11/20 12:27:01;;;;;;;8.70;5.60;;;;;;;-128.00;-1.00;-1.00;126471;1282;1073843;-79
2021/11/20 12:30:19;;;;;;;11.00;8.00;;;;;;;-128.00;-1.00;-1.00;126440;1282;1074304;-78
2021/11/20 12:33:36;;;;;;;4.30;2.70;;;;;;;-128.00;-1.00;-1.00;126456;1282;1077127;-79
2021/11/20 12:36:54;;;;;;;5.40;3.30;;;;;;;-128.00;-1.00;-1.00;126549;1285;1073851;-79
2021/11/20 12:40:27;;;;;;;4.80;2.60;;;;;;;-128.00;-1.00;-1.00;126788;1283;1077004;-78
2021/11/20 12:43:46;;;;;;;5.70;4.00;;;;;;;-128.00;-1.00;-1.00;126449;1274;1076588;-78
2021/11/20 12:47:02;;;;;;;8.50;6.70;;;;;;;-128.00;-1.00;-1.00;126583;1281;1075689;-79
2021/11/20 12:50:10;;;;;;;5.60;3.80;;;;;;;-128.00;-1.00;-1.00;126734;1281;1075696;-77
2021/11/20 12:53:26;;;;;;;5.00;3.30;;;;;;;-128.00;-1.00;-1.00;126632;1282;1075729;-79
2021/11/20 12:56:35;;;;;;;4.10;2.60;;;;;;;-128.00;-1.00;-1.00;126562;1282;1076697;-76
2021/11/20 12:59:44;;;;;;;4.20;2.80;;;;;;;-128.00;-1.00;-1.00;126661;1281;1075742;-79
2021/11/20 13:02:54;;;;;;;5.90;4.30;;;;;;;-128.00;-1.00;-1.00;126455;1284;1074404;-76
2021/11/20 13:06:00;;;;;;;7.70;5.80;;;;;;;-128.00;-1.00;-1.00;126435;1281;1072885;-76
2021/11/20 13:09:08;;;;;;;6.40;3.50;;;;;;;-128.00;-1.00;-1.00;126499;1281;1076479;-81
2021/11/20 13:12:22;;;;;;;8.20;4.90;;;;;;;-128.00;-1.00;-1.00;126502;1281;1076652;-79
2021/11/20 13:15:36;;;;;;;12.50;7.00;;;;;;;-128.00;-1.00;-1.00;126647;1285;1076732;-79
2021/11/20 13:18:41;;;;;;;18.20;10.50;;;;;;;-128.00;-1.00;-1.00;126598;1281;1074788;-77
2021/11/20 13:22:00;;;;;;;5.40;3.70;;;;;;;-128.00;-1.00;-1.00;126438;1281;1076170;-77
2021/11/20 13:25:13;;;;;;;5.30;3.70;;;;;;;-128.00;-1.00;-1.00;126488;1285;1075948;-75
2021/11/20 13:28:15;;;;;;;10.50;6.20;;;;;;;-128.00;-1.00;-1.00;126677;1285;1076059;-74
2021/11/20 13:31:19;;;;;;;5.30;3.50;;;;;;;-128.00;-1.00;-1.00;126652;1281;1004672;-76
2021/11/20 13:34:22;;;;;;;5.00;3.00;;;;;;;-128.00;-1.00;-1.00;126613;1285;1004648;-76
2021/11/20 13:37:25;;;;;;;6.30;4.30;;;;;;;-128.00;-1.00;-1.00;126470;1281;1003926;-76
2021/11/20 13:40:31;;;;;;;14.30;6.50;;;;;;;-128.00;-1.00;-1.00;126468;1284;1005699;-78
2021/11/20 13:43:35;;;;;;;14.10;7.10;;;;;;;-128.00;-1.00;-1.00;126536;1282;1074958;-78
2021/11/20 13:46:40;;;;;;;10.60;5.70;;;;;;;-128.00;-1.00;-1.00;126601;1281;1074060;-77
2021/11/20 13:49:43;;;;;;;4.90;3.30;;;;;;;-128.00;-1.00;-1.00;126637;1281;1074848;-78
2021/11/20 13:52:46;;;;;;;10.00;4.00;;;;;;;-128.00;-1.00;-1.00;126463;1281;1005066;-78
2021/11/20 13:55:51;;;;;;;9.70;4.00;;;;;;;-128.00;-1.00;-1.00;126367;1282;1004335;-77
2021/11/20 13:58:59;;;;;;;7.90;3.80;;;;;;;-128.00;-1.00;-1.00;126486;1281;1076741;-77
2021/11/20 14:02:06;;;;;;;5.20;3.20;;;;;;;-128.00;-1.00;-1.00;126416;1281;1073292;-78
2021/11/20 14:05:09;;;;;;;6.20;3.90;;;;;;;-128.00;-1.00;-1.00;126443;1281;1075745;-78
2021/11/20 14:08:13;;;;;;;5.20;3.70;;;;;;;-128.00;-1.00;-1.00;126474;1282;1004101;-77
2021/11/20 14:11:19;;;;;;;6.40;4.60;;;;;;;-128.00;-1.00;-1.00;126488;1282;1075720;-76
2021/11/20 14:14:23;;;;;;;6.70;3.70;;;;;;;-128.00;-1.00;-1.00;126633;1281;1074128;-75
2021/11/20 14:17:26;;;;;;;4.90;3.60;;;;;;;-128.00;-1.00;-1.00;126585;1281;1074466;-78
2021/11/20 14:20:39;;;;;;;8.50;4.40;;;;;;;-128.00;-1.00;-1.00;126652;1281;1004707;-76
2021/11/20 14:23:52;;;;;;;3.80;2.50;;;;;;;-128.00;-1.00;-1.00;126562;1281;1077043;-77
2021/11/20 14:26:57;;;;;;;277.50;88.00;;;;;;;-128.00;-1.00;-1.00;126679;1283;1074222;-76
2021/11/20 14:30:01;;;;;;;51.30;21.20;;;;;;;-128.00;-1.00;-1.00;126439;1285;1074929;-77
2021/11/20 14:33:06;;;;;;;11.40;6.90;;;;;;;-128.00;-1.00;-1.00;126417;1281;1005177;-77